Time;durP1;ratioP1;P1;durP2;ratioP2;P2;SDS_P1;SDS_P2;PMS_P1;PMS_P2;Temp;Humidity;BMP_temperature;BMP_pressure;BME280_temperature;BME280_humidity;BME280_pressure;Samples;Min_cycle;Max_cycle;Signal;HPM_P1;HPM_P2
2023/06/13 04:01:18;;;;;;;2.30;2.10;;;13.60;99.90;;;;;;5549481;23;20502;-76
2023/06/13 04:03:44;;;;;;;4.00;1.70;;;13.60;99.90;;;;;;4969187;28;20204;-76
2023/06/13 04:06:11;;;;;;;1.63;1.57;;;13.60;99.90;;;;;;4971285;28;20487;-77
2023/06/13 04:08:38;;;;;;;1.90;1.80;;;13.70;99.90;;;;;;4974158;28;20464;-77
2023/06/13 04:11:05;;;;;;;2.35;2.33;;;13.70;99.90;;;;;;4980120;28;20491;-77
2023/06/13 04:13:32;;;;;;;1.50;1.40;;;13.70;99.90;;;;;;4961216;28;20201;-77
2023/06/13 04:15:58;;;;;;;1.77;1.67;;;13.80;99.90;;;;;;4988069;23;20925;-71
2023/06/13 04:18:27;;;;;;;1.53;1.43;;;13.70;99.90;;;;;;4990859;28;20967;-72
2023/06/13 04:20:55;;;;;;;1.73;1.63;;;13.70;99.90;;;;;;4988657;28;20479;-72
2023/06/13 04:23:25;;;;;;;1.90;1.80;;;13.90;99.90;;;;;;4988046;28;20817;-71
2023/06/13 04:25:52;;;;;;;1.67;1.57;;;14.70;99.90;;;;;;4987583;28;21030;-71
2023/06/13 04:28:19;;;;;;;2.70;2.63;;;15.40;99.90;;;;;;4993332;28;20470;-70
2023/06/13 04:30:47;;;;;;;2.27;2.17;;;15.70;99.90;;;;;;4991267;28;20509;-71
2023/06/13 04:33:16;;;;;;;2.73;2.57;;;15.90;99.90;;;;;;4989331;28;20554;-70
2023/06/13 04:35:46;;;;;;;3.33;3.07;;;16.20;99.90;;;;;;4989748;28;20467;-70
2023/06/13 04:38:13;;;;;;;2.53;2.33;;;16.90;99.90;;;;;;4992480;28;20469;-70
2023/06/13 04:40:40;;;;;;;3.20;2.80;;;17.20;99.90;;;;;;4989479;28;20549;-71
2023/06/13 04:43:09;;;;;;;2.20;2.10;;;17.80;99.90;;;;;;4990474;28;20470;-70
2023/06/13 04:45:36;;;;;;;3.87;3.27;;;18.40;99.90;;;;;;4993643;28;20585;-70
2023/06/13 04:48:03;;;;;;;2.07;2.00;;;18.80;99.90;;;;;;4989866;28;20473;-70
2023/06/13 04:50:31;;;;;;;3.50;3.30;;;19.30;99.90;;;;;;4992748;28;20466;-70
2023/06/13 04:52:59;;;;;;;1.40;1.33;;;19.70;99.90;;;;;;4989005;28;20476;-70
2023/06/13 04:55:32;;;;;;;2.20;2.10;;;19.70;99.60;;;;;;4993560;28;20468;-71
2023/06/13 04:57:59;;;;;;;2.50;2.30;;;19.90;98.80;;;;;;4990819;28;20471;-71
2023/06/13 05:00:26;;;;;;;1.83;1.83;;;20.10;99.00;;;;;;4990966;28;20622;-70
2023/06/13 05:02:55;;;;;;;1.90;1.90;;;20.40;97.70;;;;;;4990018;28;20463;-70
2023/06/13 05:05:22;;;;;;;1.87;1.77;;;20.80;96.80;;;;;;4986958;28;20581;-71
2023/06/13 05:07:55;;;;;;;2.20;2.00;;;20.90;96.10;;;;;;4987584;28;21073;-71
2023/06/13 05:10:23;;;;;;;1.50;1.40;;;21.10;95.80;;;;;;4987016;28;20475;-71
2023/06/13 05:12:50;;;;;;;1.80;1.70;;;20.90;96.10;;;;;;4983977;28;20469;-71
2023/06/13 05:15:18;;;;;;;1.73;1.73;;;21.00;96.00;;;;;;4991974;28;20468;-70
2023/06/13 05:17:46;;;;;;;1.63;1.57;;;21.00;95.80;;;;;;4992776;28;20484;-71
2023/06/13 05:20:14;;;;;;;2.00;2.00;;;21.40;95.60;;;;;;4992114;28;20504;-71
2023/06/13 05:22:41;;;;;;;2.23;2.23;;;21.60;95.40;;;;;;4992537;28;20462;-71
2023/06/13 05:25:09;;;;;;;2.17;2.13;;;22.00;94.90;;;;;;4991853;28;20544;-70
2023/06/13 05:27:37;;;;;;;1.80;1.60;;;22.40;93.60;;;;;;4992498;28;20573;-71
2023/06/13 05:30:06;;;;;;;2.60;1.87;;;22.40;93.50;;;;;;4986506;28;20547;-70
2023/06/13 05:32:33;;;;;;;1.60;1.60;;;22.40;93.40;;;;;;4992250;28;20466;-70
2023/06/13 05:35:00;;;;;;;1.33;1.33;;;22.00;93.90;;;;;;4992325;28;20464;-70
2023/06/13 05:37:28;;;;;;;1.40;1.40;;;22.30;93.60;;;;;;4984451;28;20502;-70
2023/06/13 05:39:55;;;;;;;1.40;1.40;;;22.00;92.90;;;;;;4989782;28;20483;-70
2023/06/13 05:42:22;;;;;;;1.50;1.50;;;21.90;94.30;;;;;;4991843;28;20504;-70
2023/06/13 05:44:50;;;;;;;1.80;1.70;;;22.20;94.00;;;;;;4992502;28;20851;-70
2023/06/13 05:47:17;;;;;;;1.93;1.83;;;22.50;93.60;;;;;;4987583;28;20504;-70
2023/06/13 05:49:43;;;;;;;2.13;2.13;;;22.40;93.70;;;;;;4989567;28;20474;-70
2023/06/13 05:52:11;;;;;;;1.40;1.40;;;22.90;93.50;;;;;;4991250;28;20952;-70
2023/06/13 05:54:37;;;;;;;1.70;1.70;;;23.00;93.20;;;;;;4991192;28;20821;-71
2023/06/13 05:57:05;;;;;;;1.53;1.53;;;23.40;92.90;;;;;;4985910;28;20487;-71
2023/06/13 05:59:31;;;;;;;1.80;1.70;;;23.60;91.90;;;;;;4986800;28;20499;-71
2023/06/13 06:01:59;;;;;;;1.50;1.50;;;23.20;91.80;;;;;;4988780;28;20476;-71
2023/06/13 06:04:27;;;;;;;1.20;1.20;;;23.20;92.40;;;;;;4992240;28;20884;-71
2023/06/13 06:06:53;;;;;;;3.80;1.53;;;23.30;92.20;;;;;;4989104;28;20601;-71
2023/06/13 06:09:20;;;;;;;1.37;1.37;;;22.90;92.50;;;;;;4988576;28;20498;-71
2023/06/13 06:11:47;;;;;;;1.37;1.37;;;22.90;92.50;;;;;;4980270;28;20470;-71
2023/06/13 06:14:13;;;;;;;1.60;1.50;;;23.30;92.30;;;;;;4989478;28;20564;-71
2023/06/13 06:16:40;;;;;;;1.43;1.43;;;23.70;91.70;;;;;;4990712;28;20485;-71
2023/06/13 06:19:08;;;;;;;1.67;1.67;;;23.40;91.40;;;;;;4991163;28;20471;-71
2023/06/13 06:21:35;;;;;;;0.87;0.87;;;23.00;91.60;;;;;;4990915;28;20464;-71
2023/06/13 06:24:02;;;;;;;1.27;1.27;;;23.10;91.20;;;;;;4989537;28;20502;-71
2023/06/13 06:26:29;;;;;;;1.60;1.50;;;22.70;91.50;;;;;;4990527;28;20488;-71
2023/06/13 06:28:56;;;;;;;1.33;1.07;;;23.10;91.30;;;;;;4990765;28;20475;-71
2023/06/13 06:31:24;;;;;;;1.10;1.10;;;23.10;90.90;;;;;;4990143;28;20480;-71
2023/06/13 06:33:50;;;;;;;1.37;1.37;;;23.40;91.30;;;;;;4991743;28;20548;-71
2023/06/13 06:36:19;;;;;;;1.27;1.27;;;24.30;89.70;;;;;;4991396;28;20480;-71
2023/06/13 06:38:46;;;;;;;1.40;1.40;;;24.80;88.30;;;;;;4989502;28;20480;-70
2023/06/13 06:41:13;;;;;;;0.90;0.90;;;25.30;86.00;;;;;;4991143;28;20473;-70
2023/06/13 06:43:39;;;;;;;1.13;1.13;;;25.10;85.40;;;;;;4991603;28;20830;-71
2023/06/13 06:46:07;;;;;;;1.33;1.27;;;24.60;84.80;;;;;;4986841;28;21049;-71
2023/06/13 06:48:34;;;;;;;2.13;2.03;;;23.90;86.80;;;;;;4987129;28;20472;-72
2023/06/13 06:51:01;;;;;;;1.00;1.00;;;23.80;88.00;;;;;;4987844;28;20481;-71
2023/06/13 06:53:29;;;;;;;1.20;1.20;;;23.80;88.20;;;;;;4981963;28;20464;-70
2023/06/13 06:55:55;;;;;;;1.20;1.20;;;24.60;85.70;;;;;;4990321;28;20494;-73
2023/06/13 06:58:22;;;;;;;1.00;0.90;;;24.50;85.90;;;;;;4987926;28;20480;-71
2023/06/13 07:00:49;;;;;;;1.17;1.17;;;25.00;85.30;;;;;;4991314;28;20901;-71
2023/06/13 07:03:16;;;;;;;1.10;1.10;;;24.50;85.20;;;;;;4988130;28;20480;-71
2023/06/13 07:05:43;;;;;;;1.10;1.10;;;24.40;84.30;;;;;;4990987;28;21220;-72
2023/06/13 07:08:10;;;;;;;1.73;1.10;;;24.60;84.90;;;;;;4989182;28;20477;-73
2023/06/13 07:10:38;;;;;;;0.97;0.97;;;25.20;83.70;;;;;;4982269;28;22199;-70
2023/06/13 07:13:05;;;;;;;2.40;1.30;;;24.30;83.50;;;;;;4986658;28;20797;-71
2023/06/13 07:15:31;;;;;;;0.93;0.93;;;24.50;85.10;;;;;;4991114;28;20469;-71
2023/06/13 07:17:58;;;;;;;1.20;1.20;;;24.60;82.30;;;;;;4987097;28;20786;-70
2023/06/13 07:20:26;;;;;;;1.70;1.30;;;24.20;82.20;;;;;;4990319;28;20461;-71
2023/06/13 07:22:54;;;;;;;1.40;1.40;;;24.60;83.20;;;;;;4982215;28;20488;-72
2023/06/13 07:25:21;;;;;;;1.37;1.17;;;25.00;83.20;;;;;;4987802;28;20490;-71
2023/06/13 07:27:49;;;;;;;0.83;0.83;;;25.90;80.20;;;;;;4984288;28;20497;-72
2023/06/13 07:30:15;;;;;;;1.30;1.30;;;26.10;78.20;;;;;;4984173;28;20559;-73
2023/06/13 07:32:42;;;;;;;1.33;1.33;;;26.30;77.00;;;;;;4978225;28;20493;-71
2023/06/13 07:35:09;;;;;;;1.17;1.17;;;26.60;76.30;;;;;;4983998;28;20475;-72
2023/06/13 07:37:36;;;;;;;0.90;0.90;;;26.10;75.20;;;;;;4986079;28;20518;-73
2023/06/13 07:40:07;;;;;;;0.80;0.80;;;26.00;75.60;;;;;;4989396;28;20557;-72
2023/06/13 07:42:33;;;;;;;1.17;1.17;;;26.00;75.50;;;;;;4986278;28;20482;-73
2023/06/13 07:45:02;;;;;;;1.10;1.10;;;26.30;74.60;;;;;;4990210;28;20474;-72
2023/06/13 07:47:28;;;;;;;0.80;0.80;;;25.90;74.20;;;;;;4981842;28;20497;-72
2023/06/13 07:49:55;;;;;;;1.17;1.17;;;26.20;74.20;;;;;;4990288;28;20459;-72
2023/06/13 07:52:22;;;;;;;1.00;1.00;;;26.60;73.20;;;;;;4986641;28;20494;-71
2023/06/13 07:54:48;;;;;;;1.00;1.00;;;26.80;71.90;;;;;;4980508;28;20510;-71
2023/06/13 07:57:15;;;;;;;0.90;0.90;;;26.50;70.60;;;;;;4984005;28;20487;-73
2023/06/13 07:59:42;;;;;;;1.13;1.13;;;26.40;72.10;;;;;;4993611;28;20458;-72
2023/06/13 08:02:10;;;;;;;0.90;0.90;;;26.10;71.30;;;;;;4989192;28;20629;-72
2023/06/13 08:04:37;;;;;;;3.73;1.10;;;26.30;70.90;;;;;;4990306;28;20970;-72
2023/06/13 08:07:04;;;;;;;0.90;0.90;;;26.80;70.90;;;;;;4993480;28;20494;-71
2023/06/13 08:09:31;;;;;;;1.43;1.43;;;27.00;70.10;;;;;;4990245;28;20562;-71
2023/06/13 08:11:58;;;;;;;1.73;1.60;;;26.50;69.80;;;;;;4983876;28;20971;-72
2023/06/13 08:14:25;;;;;;;1.43;1.27;;;26.60;69.70;;;;;;4989100;28;20474;-72
2023/06/13 08:16:52;;;;;;;1.10;1.10;;;26.90;69.00;;;;;;4991492;28;20498;-72
2023/06/13 08:19:20;;;;;;;1.10;1.03;;;26.70;64.00;;;;;;4993691;28;20478;-71
2023/06/13 08:21:47;;;;;;;1.10;1.10;;;26.60;64.30;;;;;;4993949;28;20459;-71
2023/06/13 08:24:14;;;;;;;1.10;1.10;;;26.70;63.50;;;;;;4991044;28;20473;-71
2023/06/13 08:26:41;;;;;;;1.13;1.10;;;26.70;66.00;;;;;;4991565;28;20498;-71
2023/06/13 08:29:08;;;;;;;1.00;1.00;;;26.60;64.80;;;;;;4993165;28;20467;-71
2023/06/13 08:31:35;;;;;;;1.17;1.17;;;26.30;64.60;;;;;;4993878;28;20486;-72
2023/06/13 08:34:02;;;;;;;0.77;0.77;;;26.50;63.40;;;;;;4992884;28;20481;-71
2023/06/13 08:36:30;;;;;;;0.83;0.83;;;26.60;64.20;;;;;;4985155;28;20487;-72
2023/06/13 08:38:57;;;;;;;1.13;1.13;;;26.60;62.70;;;;;;4992484;28;20471;-71
2023/06/13 08:41:26;;;;;;;0.70;0.70;;;26.70;63.10;;;;;;4992279;28;20467;-71
2023/06/13 08:43:53;;;;;;;1.03;1.03;;;27.00;63.80;;;;;;4989264;28;20470;-72
2023/06/13 08:46:20;;;;;;;1.00;1.00;;;27.30;64.30;;;;;;4992695;28;20995;-71
2023/06/13 08:48:47;;;;;;;1.27;1.27;;;26.70;62.10;;;;;;4992314;28;20463;-71
2023/06/13 08:51:16;;;;;;;1.60;1.60;;;26.40;62.80;;;;;;4987994;28;20475;-71
2023/06/13 08:53:49;;;;;;;1.00;1.00;;;26.50;63.50;;;;;;4990803;28;20471;-71
2023/06/13 08:56:16;;;;;;;1.00;1.00;;;26.70;63.10;;;;;;4988307;28;20529;-72
2023/06/13 08:58:46;;;;;;;1.07;1.07;;;26.60;61.80;;;;;;4987736;28;20908;-74
2023/06/13 09:01:14;;;;;;;0.73;0.73;;;26.80;61.20;;;;;;4993115;28;20470;-72
2023/06/13 09:03:41;;;;;;;1.10;1.10;;;26.10;59.00;;;;;;4992024;28;20471;-72
2023/06/13 09:06:11;;;;;;;0.70;0.70;;;25.80;60.00;;;;;;4990675;28;20594;-72
2023/06/13 09:08:39;;;;;;;1.10;1.10;;;26.00;57.60;;;;;;4992457;28;20889;-72
2023/06/13 09:11:07;;;;;;;1.10;1.10;;;26.40;58.20;;;;;;4992677;28;20820;-72
2023/06/13 09:13:36;;;;;;;1.00;1.00;;;26.50;58.80;;;;;;4989708;28;20491;-72
2023/06/13 09:16:03;;;;;;;1.00;1.00;;;26.60;58.50;;;;;;4992426;28;20490;-72
2023/06/13 09:18:35;;;;;;;1.17;1.17;;;26.60;59.70;;;;;;4993583;28;20478;-72
2023/06/13 09:21:02;;;;;;;1.13;1.13;;;26.80;59.00;;;;;;4993831;28;20478;-72
2023/06/13 09:23:30;;;;;;;0.80;0.80;;;26.50;55.10;;;;;;4991317;28;20467;-73
2023/06/13 09:25:57;;;;;;;1.50;1.50;;;26.30;57.20;;;;;;4986956;28;20487;-72
2023/06/13 09:28:33;;;;;;;0.80;0.80;;;25.80;58.50;;;;;;4992270;28;20471;-72
2023/06/13 09:31:01;;;;;;;1.00;1.00;;;25.80;59.20;;;;;;4992980;28;20495;-72
2023/06/13 09:33:27;;;;;;;1.50;1.20;;;26.00;59.30;;;;;;4992841;28;20467;-73
2023/06/13 09:35:54;;;;;;;1.20;1.20;;;26.00;58.10;;;;;;4990776;28;20988;-72
2023/06/13 09:38:24;;;;;;;1.30;1.20;;;25.80;55.90;;;;;;4992139;28;20478;-72
2023/06/13 09:40:52;;;;;;;1.20;1.20;;;25.70;56.50;;;;;;4990878;28;20461;-72
2023/06/13 09:43:19;;;;;;;0.90;0.90;;;25.70;55.60;;;;;;4990342;28;20560;-71
2023/06/13 09:45:48;;;;;;;1.17;1.17;;;25.60;55.80;;;;;;4991894;28;20474;-72
2023/06/13 09:48:15;;;;;;;1.00;1.00;;;25.70;56.10;;;;;;4992354;28;20540;-71
2023/06/13 09:50:43;;;;;;;1.33;1.33;;;25.50;56.10;;;;;;4985763;28;20470;-71
2023/06/13 09:53:10;;;;;;;0.77;0.77;;;25.30;55.60;;;;;;4991512;28;20495;-72
2023/06/13 09:55:38;;;;;;;0.80;0.80;;;25.10;56.00;;;;;;4983972;28;21342;-73
2023/06/13 09:58:05;;;;;;;1.67;1.60;;;25.10;57.00;;;;;;4983533;28;20554;-71
2023/06/13 10:00:32;;;;;;;1.37;1.27;;;25.20;57.20;;;;;;4987218;28;20609;-72
2023/06/13 10:03:00;;;;;;;1.30;1.30;;;25.10;57.00;;;;;;4983076;28;20465;-71
2023/06/13 10:05:27;;;;;;;1.17;1.17;;;24.90;57.90;;;;;;4989753;28;20474;-71
2023/06/13 10:07:54;;;;;;;1.20;1.10;;;25.10;56.50;;;;;;4990035;28;20613;-71
2023/06/13 10:10:21;;;;;;;1.20;1.20;;;25.20;57.60;;;;;;4989861;28;20496;-71
2023/06/13 10:12:49;;;;;;;1.00;1.00;;;25.30;55.50;;;;;;4977899;28;20574;-71
2023/06/13 10:15:23;;;;;;;0.90;0.90;;;25.30;55.50;;;;;;4984448;28;20479;-72
2023/06/13 10:17:50;;;;;;;2.70;1.53;;;25.40;54.60;;;;;;5011423;23;20504;-77
2023/06/13 10:20:20;;;;;;;0.77;0.77;;;25.40;54.00;;;;;;4988174;28;20473;-76
2023/06/13 10:22:47;;;;;;;1.00;0.83;;;25.40;54.60;;;;;;4996872;28;20530;-77
2023/06/13 10:25:18;;;;;;;1.10;1.10;;;25.40;54.10;;;;;;5006959;28;20465;-77
2023/06/13 10:27:51;;;;;;;1.40;1.30;;;25.30;55.00;;;;;;5009304;28;20487;-77
2023/06/13 10:30:35;;;;;;;0.93;0.93;;;25.40;55.20;;;;;;4995271;28;20470;-78
2023/06/13 10:33:32;;;;;;;1.70;1.60;;;25.30;57.00;;;;;;4992026;28;20465;-78
2023/06/13 10:36:23;;;;;;;1.50;1.50;;;25.40;57.50;;;;;;4988349;28;20463;-78
2023/06/13 10:39:17;;;;;;;1.60;1.60;;;25.30;58.70;;;;;;4991910;28;20477;-78
2023/06/13 10:42:02;;;;;;;1.30;1.30;;;25.40;55.80;;;;;;4989395;28;20980;-78
2023/06/13 10:44:37;;;;;;;1.90;1.80;;;25.30;56.80;;;;;;4992627;28;20453;-78
2023/06/13 10:47:05;;;;;;;1.20;1.20;;;25.20;56.60;;;;;;4992794;28;20499;-78
2023/06/13 10:49:38;;;;;;;1.63;1.63;;;25.30;57.00;;;;;;4992749;28;20466;-78
2023/06/13 10:52:10;;;;;;;0.93;0.87;;;25.40;56.80;;;;;;4991017;28;20847;-78
2023/06/13 10:54:38;;;;;;;1.30;1.30;;;25.60;55.60;;;;;;4992289;28;20451;-78
2023/06/13 10:57:06;;;;;;;2.07;0.93;;;25.70;55.40;;;;;;4981155;28;20481;-78
2023/06/13 10:59:37;;;;;;;1.10;1.10;;;25.40;55.30;;;;;;4990391;28;20526;-78
2023/06/13 11:02:04;;;;;;;1.27;1.27;;;25.40;56.40;;;;;;4983632;28;20471;-78
2023/06/13 11:04:31;;;;;;;0.97;0.97;;;25.40;56.60;;;;;;4985472;28;20464;-79
2023/06/13 11:07:27;;;;;;;1.33;1.23;;;25.60;55.10;;;;;;4984246;28;20498;-78
2023/06/13 11:10:12;;;;;;;1.70;1.70;;;25.70;54.60;;;;;;4978379;28;20848;-77
2023/06/13 11:12:41;;;;;;;1.73;1.63;;;25.70;54.00;;;;;;4984104;28;20987;-77
2023/06/13 11:15:21;;;;;;;1.70;1.43;;;25.60;54.20;;;;;;4994432;28;20814;-77
2023/06/13 11:18:16;;;;;;;1.20;1.20;;;25.60;55.80;;;;;;4989527;28;20490;-77
2023/06/13 11:20:48;;;;;;;1.70;1.70;;;25.80;57.50;;;;;;4970376;28;20475;-77
2023/06/13 11:23:18;;;;;;;1.60;1.60;;;25.90;55.50;;;;;;4985120;28;20934;-76
2023/06/13 11:25:46;;;;;;;1.23;1.23;;;26.00;54.30;;;;;;4990312;28;20474;-75
2023/06/13 11:28:13;;;;;;;1.83;1.60;;;25.90;54.30;;;;;;4991252;28;20492;-75
2023/06/13 11:30:43;;;;;;;1.93;1.90;;;25.80;54.50;;;;;;4984620;28;20501;-75
2023/06/13 11:33:12;;;;;;;2.57;2.40;;;25.70;52.70;;;;;;4984931;28;20468;-75
2023/06/13 11:35:42;;;;;;;1.63;1.63;;;25.70;53.70;;;;;;4994712;28;20798;-75
2023/06/13 11:38:15;;;;;;;4.37;1.30;;;25.90;55.00;;;;;;4994417;28;20589;-75
2023/06/13 11:40:45;;;;;;;1.30;1.30;;;26.00;57.00;;;;;;4992099;28;20483;-75
2023/06/13 11:43:13;;;;;;;2.23;2.13;;;26.20;57.30;;;;;;4991179;28;20462;-76
2023/06/13 11:45:41;;;;;;;1.30;1.30;;;26.40;56.70;;;;;;4994727;28;20472;-75
2023/06/13 11:48:11;;;;;;;1.43;1.43;;;26.60;57.50;;;;;;4994035;28;20496;-76
2023/06/13 11:50:38;;;;;;;1.40;1.40;;;26.70;57.80;;;;;;4987985;28;20910;-75
2023/06/13 11:53:05;;;;;;;2.20;1.77;;;26.70;57.90;;;;;;4990425;28;20831;-76
2023/06/13 11:55:32;;;;;;;1.40;1.40;;;26.70;58.60;;;;;;4994252;28;20463;-75
2023/06/13 11:58:00;;;;;;;2.03;1.93;;;26.50;58.40;;;;;;4993808;28;20481;-76
2023/06/13 12:00:28;;;;;;;1.53;1.53;;;26.50;58.10;;;;;;4985379;28;20956;-75
2023/06/13 12:02:55;;;;;;;1.10;1.10;;;26.60;55.70;;;;;;4983902;28;20579;-75
2023/06/13 12:05:22;;;;;;;1.87;1.87;;;26.60;54.80;;;;;;4991073;28;20597;-74
2023/06/13 12:07:50;;;;;;;1.50;1.50;;;26.80;54.90;;;;;;4985818;28;20585;-76
2023/06/13 12:10:17;;;;;;;2.10;1.93;;;26.90;54.80;;;;;;4986049;28;20497;-77
2023/06/13 12:12:56;;;;;;;1.90;1.90;;;27.00;53.50;;;;;;4983734;28;20473;-76
2023/06/13 12:15:26;;;;;;;2.40;2.30;;;27.00;54.30;;;;;;4994000;28;20522;-77
2023/06/13 12:17:59;;;;;;;1.80;1.80;;;26.80;54.40;;;;;;4987242;28;20593;-76
2023/06/13 12:20:26;;;;;;;1.87;1.87;;;26.70;53.30;;;;;;4992070;28;20474;-75
2023/06/13 12:22:56;;;;;;;1.27;1.27;;;26.80;55.00;;;;;;4989428;28;20501;-75
2023/06/13 12:25:24;;;;;;;2.10;2.00;;;27.00;54.10;;;;;;4993570;28;20494;-76
2023/06/13 12:27:51;;;;;;;1.43;1.43;;;27.00;53.90;;;;;;4991564;28;21455;-78
2023/06/13 12:30:19;;;;;;;2.03;2.03;;;26.90;54.40;;;;;;4991439;28;20521;-77
2023/06/13 12:32:50;;;;;;;1.80;1.70;;;26.90;55.30;;;;;;4993455;28;20867;-78
2023/06/13 12:35:19;;;;;;;1.90;1.80;;;26.90;56.30;;;;;;4990692;28;20903;-78
2023/06/13 12:37:48;;;;;;;2.67;2.57;;;26.80;54.60;;;;;;4992046;28;20989;-78
2023/06/13 12:40:15;;;;;;;3.60;1.70;;;26.80;55.40;;;;;;4993685;28;20470;-78
2023/06/13 12:42:43;;;;;;;1.63;1.63;;;27.00;55.30;;;;;;4989562;28;20470;-77
2023/06/13 12:45:11;;;;;;;1.80;1.80;;;27.10;55.10;;;;;;4993567;28;20465;-78
2023/06/13 12:47:38;;;;;;;1.93;1.80;;;27.00;54.60;;;;;;4988470;28;20815;-77
2023/06/13 12:50:10;;;;;;;1.80;1.80;;;26.90;54.20;;;;;;4973724;28;20471;-78
2023/06/13 12:52:38;;;;;;;1.80;1.70;;;26.60;54.40;;;;;;4973856;28;20976;-77
2023/06/13 12:55:05;;;;;;;1.60;1.60;;;26.50;53.60;;;;;;4984581;28;20556;-77
2023/06/13 12:57:32;;;;;;;1.80;1.70;;;26.40;53.80;;;;;;4993893;28;21015;-77
2023/06/13 13:00:00;;;;;;;2.10;2.00;;;26.40;53.70;;;;;;4994171;28;20470;-76
2023/06/13 13:02:27;;;;;;;1.47;1.37;;;26.30;51.70;;;;;;4993125;28;20964;-77
2023/06/13 13:04:59;;;;;;;2.10;2.10;;;26.20;52.70;;;;;;4991006;28;20626;-77
2023/06/13 13:07:29;;;;;;;1.73;1.63;;;26.30;52.70;;;;;;4992588;28;20491;-77
2023/06/13 13:09:56;;;;;;;2.03;1.83;;;26.20;52.30;;;;;;4991245;28;20931;-77
2023/06/13 13:12:24;;;;;;;2.93;2.10;;;26.30;52.90;;;;;;4985306;28;20909;-77
2023/06/13 13:14:51;;;;;;;1.53;1.50;;;26.60;52.10;;;;;;4992379;28;20689;-77
2023/06/13 13:17:18;;;;;;;1.50;1.50;;;26.70;51.70;;;;;;4992941;28;20507;-76
2023/06/13 13:19:46;;;;;;;1.90;1.90;;;26.50;51.70;;;;;;4993049;28;20578;-77
2023/06/13 13:22:13;;;;;;;1.60;1.57;;;26.40;50.90;;;;;;4984275;28;20471;-77
2023/06/13 13:24:41;;;;;;;1.63;1.63;;;26.30;50.50;;;;;;4992289;28;20488;-76
2023/06/13 13:27:08;;;;;;;1.87;1.80;;;26.30;50.50;;;;;;4992983;28;20480;-76
2023/06/13 13:29:34;;;;;;;1.60;1.50;;;26.30;49.70;;;;;;4991104;28;20526;-77
2023/06/13 13:32:01;;;;;;;1.47;1.47;;;26.40;49.80;;;;;;4988035;28;20552;-76
2023/06/13 13:34:28;;;;;;;1.00;1.00;;;26.60;50.50;;;;;;4989615;28;20837;-77
2023/06/13 13:36:55;;;;;;;1.10;1.10;;;26.60;51.30;;;;;;4992019;28;20489;-77
2023/06/13 13:39:22;;;;;;;2.40;2.30;;;26.60;50.10;;;;;;4991997;28;20489;-77
2023/06/13 13:41:50;;;;;;;1.10;1.10;;;26.60;50.60;;;;;;4985482;28;20585;-75
2023/06/13 13:44:17;;;;;;;1.30;1.30;;;26.70;51.90;;;;;;4991161;28;20465;-77
2023/06/13 13:46:44;;;;;;;1.33;1.33;;;26.70;51.60;;;;;;4992972;28;20819;-76
2023/06/13 13:49:11;;;;;;;1.10;1.10;;;26.50;52.10;;;;;;4991771;28;20563;-76
2023/06/13 13:51:38;;;;;;;1.20;1.20;;;26.50;51.00;;;;;;4990952;28;20466;-76
2023/06/13 13:54:05;;;;;;;1.50;1.50;;;26.60;50.60;;;;;;4989881;28;20957;-76
2023/06/13 13:56:32;;;;;;;1.30;1.30;;;26.60;50.90;;;;;;4992644;28;20778;-77
2023/06/13 13:59:00;;;;;;;1.43;1.43;;;26.60;50.20;;;;;;4990355;28;20470;-76
2023/06/13 14:01:27;;;;;;;2.00;1.90;;;26.60;50.70;;;;;;4990452;28;20465;-77
2023/06/13 14:03:54;;;;;;;1.10;1.10;;;26.60;50.40;;;;;;4992301;28;20456;-77
2023/06/13 14:06:21;;;;;;;1.40;1.40;;;26.60;49.80;;;;;;4982735;28;20466;-77
2023/06/13 14:08:47;;;;;;;1.77;1.77;;;26.70;49.80;;;;;;4972905;28;20496;-76
2023/06/13 14:11:15;;;;;;;1.63;1.63;;;26.80;48.90;;;;;;4972477;28;20481;-76
2023/06/13 14:13:42;;;;;;;1.13;1.13;;;26.60;48.70;;;;;;4989457;28;20550;-76
2023/06/13 14:16:10;;;;;;;1.40;1.40;;;26.50;49.30;;;;;;4992325;28;20469;-76
2023/06/13 14:18:37;;;;;;;1.23;1.23;;;26.60;49.90;;;;;;4992388;28;20896;-77
2023/06/13 14:21:04;;;;;;;1.33;1.33;;;26.70;49.70;;;;;;4992716;28;20468;-77
2023/06/13 14:23:31;;;;;;;1.27;1.27;;;26.70;49.80;;;;;;4990993;28;20468;-76
2023/06/13 14:25:58;;;;;;;1.37;1.27;;;26.80;49.60;;;;;;4992614;28;20472;-77
2023/06/13 14:28:25;;;;;;;1.50;1.40;;;26.70;51.70;;;;;;4992867;28;20497;-77
2023/06/13 14:30:51;;;;;;;1.30;1.20;;;26.70;49.70;;;;;;4991883;28;20471;-76
2023/06/13 14:33:19;;;;;;;1.27;1.27;;;26.90;49.60;;;;;;4992221;28;20469;-77
2023/06/13 14:35:46;;;;;;;1.30;1.30;;;26.80;49.90;;;;;;4994005;28;20460;-77
2023/06/13 14:38:13;;;;;;;1.20;1.20;;;26.70;50.10;;;;;;4986176;28;20474;-77
2023/06/13 14:40:40;;;;;;;1.30;1.30;;;26.80;49.70;;;;;;4973854;28;20470;-77
2023/06/13 14:43:07;;;;;;;1.40;1.40;;;26.70;49.30;;;;;;4991117;28;20464;-76
2023/06/13 14:45:34;;;;;;;1.10;1.10;;;26.60;49.90;;;;;;4986079;28;20466;-77
2023/06/13 14:48:00;;;;;;;1.37;1.37;;;26.60;50.40;;;;;;4986592;28;20496;-76
2023/06/13 14:50:29;;;;;;;1.23;1.20;;;26.60;50.30;;;;;;4996101;28;20463;-75
2023/06/13 14:52:55;;;;;;;1.17;1.17;;;26.70;50.40;;;;;;4982748;28;20609;-76
2023/06/13 14:55:23;;;;;;;1.40;1.40;;;26.70;50.20;;;;;;4994205;28;20559;-75
2023/06/13 14:57:50;;;;;;;0.70;0.70;;;26.60;49.70;;;;;;4988660;28;20553;-76
2023/06/13 15:00:19;;;;;;;1.17;1.10;;;26.60;49.50;;;;;;4989245;28;20472;-75
2023/06/13 15:02:46;;;;;;;0.90;0.90;;;26.60;48.70;;;;;;4992096;28;20467;-76
2023/06/13 15:05:13;;;;;;;1.33;1.33;;;26.70;49.20;;;;;;4983493;28;20511;-76
2023/06/13 15:07:41;;;;;;;2.60;1.27;;;26.80;48.70;;;;;;4983581;28;20499;-75
2023/06/13 15:10:08;;;;;;;1.20;1.20;;;26.80;48.10;;;;;;5006437;28;20479;-75
2023/06/13 15:12:35;;;;;;;1.43;0.73;;;26.90;48.00;;;;;;4996070;28;20472;-75
2023/06/13 15:15:01;;;;;;;1.27;1.27;;;26.80;47.50;;;;;;5002534;28;20475;-75
2023/06/13 15:17:28;;;;;;;0.60;0.60;;;26.90;47.20;;;;;;4980847;28;20493;-75
2023/06/13 15:19:55;;;;;;;0.77;0.77;;;26.50;46.10;;;;;;4990911;28;20492;-76
2023/06/13 15:22:22;;;;;;;1.70;0.80;;;26.30;45.70;;;;;;4990852;28;20803;-75
2023/06/13 15:24:50;;;;;;;1.07;1.07;;;26.30;46.10;;;;;;4983009;28;20564;-75
2023/06/13 15:27:16;;;;;;;1.00;1.00;;;26.40;45.40;;;;;;4989563;28;20480;-74
2023/06/13 15:29:44;;;;;;;0.60;0.60;;;26.40;45.00;;;;;;4989788;28;20490;-76
2023/06/13 15:32:10;;;;;;;1.20;1.20;;;26.30;45.90;;;;;;4987183;28;20838;-75
2023/06/13 15:34:37;;;;;;;1.30;0.90;;;26.40;45.70;;;;;;4989923;28;20466;-75
2023/06/13 15:37:06;;;;;;;1.17;1.00;;;26.40;46.10;;;;;;4991143;28;20492;-74
2023/06/13 15:39:32;;;;;;;0.60;0.60;;;26.30;44.50;;;;;;4990676;28;20487;-75
2023/06/13 15:42:00;;;;;;;3.40;1.13;;;26.00;44.80;;;;;;4989716;28;20470;-75
2023/06/13 15:44:29;;;;;;;1.53;0.93;;;25.90;45.30;;;;;;4983517;28;20467;-75
2023/06/13 15:46:56;;;;;;;0.70;0.70;;;26.00;46.10;;;;;;4988776;28;20514;-75
2023/06/13 15:49:23;;;;;;;1.30;1.20;;;25.80;45.80;;;;;;4990295;28;20478;-77
2023/06/13 15:51:50;;;;;;;1.20;1.10;;;25.90;46.70;;;;;;4981795;28;20596;-76
2023/06/13 15:54:16;;;;;;;0.97;0.97;;;25.80;46.30;;;;;;4988667;28;20557;-75
2023/06/13 15:56:43;;;;;;;0.60;0.60;;;25.70;46.60;;;;;;4984349;28;21023;-75
2023/06/13 15:59:11;;;;;;;1.00;1.00;;;25.50;46.70;;;;;;4985577;28;20470;-74
2023/06/13 16:01:43;;;;;;;0.73;0.73;;;25.50;47.60;;;;;;4980319;28;20583;-74
2023/06/13 16:04:10;;;;;;;7.83;1.90;;;25.50;47.70;;;;;;4987060;28;20485;-76
2023/06/13 16:06:36;;;;;;;1.00;1.00;;;25.30;47.90;;;;;;4987446;28;20837;-75
2023/06/13 16:09:04;;;;;;;0.70;0.70;;;25.30;47.80;;;;;;4986268;28;20492;-75
2023/06/13 16:11:30;;;;;;;0.60;0.60;;;25.30;48.50;;;;;;4981712;28;20994;-74
2023/06/13 16:13:59;;;;;;;5.07;0.80;;;25.30;49.10;;;;;;4985059;28;20986;-76
2023/06/13 16:16:27;;;;;;;0.77;0.77;;;25.30;49.70;;;;;;4990054;28;20462;-73
2023/06/13 16:18:54;;;;;;;1.57;1.13;;;25.40;50.20;;;;;;4991357;28;20482;-74
2023/06/13 16:21:21;;;;;;;1.57;1.10;;;25.40;50.60;;;;;;4983194;28;20555;-76
2023/06/13 16:23:47;;;;;;;0.80;0.80;;;25.30;50.80;;;;;;4992206;28;20480;-76
2023/06/13 16:26:14;;;;;;;0.63;0.63;;;25.30;50.30;;;;;;5013001;23;20500;-71
2023/06/13 16:28:41;;;;;;;0.83;0.83;;;25.10;50.20;;;;;;4990741;28;20829;-72
2023/06/13 16:31:08;;;;;;;2.10;0.70;;;25.00;51.20;;;;;;4987952;28;20469;-71
2023/06/13 16:33:36;;;;;;;1.40;0.80;;;24.80;51.20;;;;;;4988953;28;20472;-71
2023/06/13 16:36:03;;;;;;;1.57;1.10;;;24.70;51.40;;;;;;4988351;28;20481;-71
2023/06/13 16:38:30;;;;;;;1.13;1.03;;;24.60;51.70;;;;;;4993383;28;20496;-72
2023/06/13 16:40:57;;;;;;;1.00;1.00;;;24.60;51.80;;;;;;4989204;28;20941;-73
2023/06/13 16:43:24;;;;;;;0.90;0.90;;;24.50;51.90;;;;;;4992274;28;20473;-72
2023/06/13 16:45:51;;;;;;;0.83;0.83;;;24.50;52.20;;;;;;4997230;28;20508;-73
2023/06/13 16:48:18;;;;;;;1.20;1.20;;;24.60;52.20;;;;;;4993124;28;20485;-72
2023/06/13 16:50:46;;;;;;;0.50;0.50;;;24.60;52.10;;;;;;4989728;28;20474;-72
2023/06/13 16:53:12;;;;;;;1.00;1.00;;;24.50;52.40;;;;;;4990128;28;20473;-72